sensor_id;sensor_type;location;lat;lon;timestamp;P1;durP1;ratioP1;P2;durP2;ratioP2
6549;SDS011;15142;48.888;9.134;2023-04-06T00:00:27;12.43;;;8.70;;
6549;SDS011;15142;48.888;9.134;2023-04-06T00:02:55;13.53;;;7.83;;
6549;SDS011;15142;48.888;9.134;2023-04-06T00:05:24;12.23;;;9.20;;
6549;SDS011;15142;48.888;9.134;2023-04-06T00:07:53;12.77;;;8.20;;
6549;SDS011;15142;48.888;9.134;2023-04-06T00:10:22;15.10;;;7.83;;
6549;SDS011;15142;48.888;9.134;2023-04-06T00:12:50;11.80;;;7.10;;
6549;SDS011;15142;48.888;9.134;2023-04-06T00:15:19;11.90;;;7.93;;
6549;SDS011;15142;48.888;9.134;2023-04-06T00:17:51;13.40;;;7.77;;
6549;SDS011;15142;48.888;9.134;2023-04-06T00:20:20;11.30;;;8.00;;
6549;SDS011;15142;48.888;9.134;2023-04-06T00:22:48;13.60;;;8.63;;
6549;SDS011;15142;48.888;9.134;2023-04-06T00:25:17;12.60;;;8.00;;
6549;SDS011;15142;48.888;9.134;2023-04-06T00:27:46;14.47;;;8.70;;
6549;SDS011;15142;48.888;9.134;2023-04-06T00:30:14;13.53;;;8.10;;
6549;SDS011;15142;48.888;9.134;2023-04-06T00:32:44;14.93;;;8.27;;
6549;SDS011;15142;48.888;9.134;2023-04-06T00:35:15;11.47;;;7.63;;
6549;SDS011;15142;48.888;9.134;2023-04-06T00:37:45;14.13;;;7.90;;
6549;SDS011;15142;48.888;9.134;2023-04-06T00:40:14;10.20;;;7.00;;
6549;SDS011;15142;48.888;9.134;2023-04-06T00:42:44;11.00;;;7.27;;
6549;SDS011;15142;48.888;9.134;2023-04-06T00:45:13;10.10;;;7.80;;
6549;SDS011;15142;48.888;9.134;2023-04-06T00:47:43;12.90;;;7.53;;
6549;SDS011;15142;48.888;9.134;2023-04-06T00:50:11;14.40;;;8.87;;
6549;SDS011;15142;48.888;9.134;2023-04-06T00:52:42;23.60;;;8.20;;
6549;SDS011;15142;48.888;9.134;2023-04-06T00:55:12;25.63;;;7.37;;
6549;SDS011;15142;48.888;9.134;2023-04-06T00:57:42;10.27;;;7.87;;
6549;SDS011;15142;48.888;9.134;2023-04-06T01:00:12;10.70;;;6.63;;
6549;SDS011;15142;48.888;9.134;2023-04-06T01:02:44;11.03;;;7.90;;
6549;SDS011;15142;48.888;9.134;2023-04-06T01:05:17;14.43;;;8.07;;
6549;SDS011;15142;48.888;9.134;2023-04-06T01:07:58;13.07;;;6.67;;
6549;SDS011;15142;48.888;9.134;2023-04-06T01:10:28;12.03;;;7.13;;
6549;SDS011;15142;48.888;9.134;2023-04-06T01:13:23;11.60;;;7.30;;
6549;SDS011;15142;48.888;9.134;2023-04-06T01:15:55;10.20;;;7.43;;
6549;SDS011;15142;48.888;9.134;2023-04-06T01:18:50;12.07;;;8.13;;
6549;SDS011;15142;48.888;9.134;2023-04-06T01:21:23;15.00;;;6.40;;
6549;SDS011;15142;48.888;9.134;2023-04-06T01:24:23;12.80;;;6.67;;
6549;SDS011;15142;48.888;9.134;2023-04-06T01:27:09;14.17;;;6.87;;
6549;SDS011;15142;48.888;9.134;2023-04-06T01:29:51;16.40;;;8.20;;
6549;SDS011;15142;48.888;9.134;2023-04-06T01:32:55;21.13;;;8.10;;
6549;SDS011;15142;48.888;9.134;2023-04-06T01:35:52;18.20;;;8.30;;
6549;SDS011;15142;48.888;9.134;2023-04-06T01:38:22;13.03;;;7.27;;
6549;SDS011;15142;48.888;9.134;2023-04-06T01:40:54;12.43;;;8.23;;
6549;SDS011;15142;48.888;9.134;2023-04-06T01:43:25;13.07;;;7.63;;
6549;SDS011;15142;48.888;9.134;2023-04-06T01:46:06;13.33;;;7.60;;
6549;SDS011;15142;48.888;9.134;2023-04-06T01:48:39;10.90;;;7.20;;
6549;SDS011;15142;48.888;9.134;2023-04-06T01:51:20;18.10;;;8.60;;
6549;SDS011;15142;48.888;9.134;2023-04-06T01:53:57;16.57;;;7.27;;
6549;SDS011;15142;48.888;9.134;2023-04-06T01:56:39;15.47;;;8.03;;
6549;SDS011;15142;48.888;9.134;2023-04-06T01:59:22;13.03;;;8.53;;
6549;SDS011;15142;48.888;9.134;2023-04-06T02:01:51;20.43;;;8.40;;
6549;SDS011;15142;48.888;9.134;2023-04-06T02:04:20;17.10;;;10.37;;
6549;SDS011;15142;48.888;9.134;2023-04-06T02:06:54;15.50;;;8.10;;
6549;SDS011;15142;48.888;9.134;2023-04-06T02:09:26;19.20;;;7.90;;
6549;SDS011;15142;48.888;9.134;2023-04-06T02:11:57;11.97;;;7.07;;
6549;SDS011;15142;48.888;9.134;2023-04-06T02:14:26;12.57;;;6.80;;
6549;SDS011;15142;48.888;9.134;2023-04-06T02:16:58;12.07;;;6.97;;
6549;SDS011;15142;48.888;9.134;2023-04-06T02:19:27;18.93;;;8.73;;
6549;SDS011;15142;48.888;9.134;2023-04-06T02:21:56;19.70;;;8.90;;
6549;SDS011;15142;48.888;9.134;2023-04-06T02:24:25;13.10;;;7.60;;
6549;SDS011;15142;48.888;9.134;2023-04-06T02:26:56;10.77;;;7.77;;
6549;SDS011;15142;48.888;9.134;2023-04-06T02:29:26;11.70;;;6.90;;
6549;SDS011;15142;48.888;9.134;2023-04-06T02:31:55;15.13;;;7.90;;
6549;SDS011;15142;48.888;9.134;2023-04-06T02:34:24;16.13;;;7.43;;
6549;SDS011;15142;48.888;9.134;2023-04-06T02:36:53;11.33;;;7.40;;
6549;SDS011;15142;48.888;9.134;2023-04-06T02:39:22;13.80;;;7.17;;
6549;SDS011;15142;48.888;9.134;2023-04-06T02:41:51;12.10;;;6.97;;
6549;SDS011;15142;48.888;9.134;2023-04-06T02:44:26;11.20;;;7.10;;
6549;SDS011;15142;48.888;9.134;2023-04-06T02:46:55;9.40;;;7.80;;
6549;SDS011;15142;48.888;9.134;2023-04-06T02:49:25;14.23;;;7.37;;
6549;SDS011;15142;48.888;9.134;2023-04-06T02:51:56;10.13;;;7.40;;
6549;SDS011;15142;48.888;9.134;2023-04-06T02:54:31;14.10;;;8.10;;
6549;SDS011;15142;48.888;9.134;2023-04-06T02:57:02;19.23;;;8.20;;
6549;SDS011;15142;48.888;9.134;2023-04-06T02:59:45;14.83;;;7.80;;
6549;SDS011;15142;48.888;9.134;2023-04-06T03:02:19;13.90;;;8.43;;
6549;SDS011;15142;48.888;9.134;2023-04-06T03:04:49;10.73;;;7.17;;
6549;SDS011;15142;48.888;9.134;2023-04-06T03:07:24;12.70;;;7.50;;
6549;SDS011;15142;48.888;9.134;2023-04-06T03:09:53;15.07;;;6.90;;
6549;SDS011;15142;48.888;9.134;2023-04-06T03:12:21;15.40;;;8.43;;
6549;SDS011;15142;48.888;9.134;2023-04-06T03:15:25;11.30;;;7.03;;
6549;SDS011;15142;48.888;9.134;2023-04-06T03:18:04;13.47;;;7.87;;
6549;SDS011;15142;48.888;9.134;2023-04-06T03:20:40;10.43;;;7.83;;
6549;SDS011;15142;48.888;9.134;2023-04-06T03:23:09;13.30;;;8.17;;
6549;SDS011;15142;48.888;9.134;2023-04-06T03:25:41;13.97;;;7.20;;
6549;SDS011;15142;48.888;9.134;2023-04-06T03:28:14;10.20;;;6.93;;
6549;SDS011;15142;48.888;9.134;2023-04-06T03:30:58;15.07;;;8.07;;
6549;SDS011;15142;48.888;9.134;2023-04-06T03:33:49;16.47;;;8.30;;
6549;SDS011;15142;48.888;9.134;2023-04-06T03:36:28;9.93;;;7.57;;
6549;SDS011;15142;48.888;9.134;2023-04-06T03:38:58;15.60;;;8.60;;
6549;SDS011;15142;48.888;9.134;2023-04-06T03:41:29;12.03;;;8.50;;
6549;SDS011;15142;48.888;9.134;2023-04-06T03:44:12;11.93;;;7.87;;
6549;SDS011;15142;48.888;9.134;2023-04-06T03:46:46;18.00;;;9.87;;
6549;SDS011;15142;48.888;9.134;2023-04-06T03:49:15;16.83;;;7.40;;
6549;SDS011;15142;48.888;9.134;2023-04-06T03:51:47;14.17;;;7.33;;
6549;SDS011;15142;48.888;9.134;2023-04-06T03:54:16;12.67;;;8.53;;
6549;SDS011;15142;48.888;9.134;2023-04-06T03:56:45;19.70;;;7.83;;
6549;SDS011;15142;48.888;9.134;2023-04-06T03:59:13;15.50;;;9.07;;
6549;SDS011;15142;48.888;9.134;2023-04-06T04:01:45;14.43;;;7.43;;
6549;SDS011;15142;48.888;9.134;2023-04-06T04:04:14;10.13;;;7.27;;
6549;SDS011;15142;48.888;9.134;2023-04-06T04:06:43;12.47;;;7.30;;
6549;SDS011;15142;48.888;9.134;2023-04-06T04:09:12;13.67;;;8.83;;
6549;SDS011;15142;48.888;9.134;2023-04-06T04:11:41;15.67;;;9.33;;
6549;SDS011;15142;48.888;9.134;2023-04-06T04:14:10;13.27;;;7.67;;
6549;SDS011;15142;48.888;9.134;2023-04-06T04:16:38;11.97;;;8.07;;
6549;SDS011;15142;48.888;9.134;2023-04-06T04:19:09;13.77;;;7.50;;
6549;SDS011;15142;48.888;9.134;2023-04-06T04:21:42;13.93;;;7.80;;
6549;SDS011;15142;48.888;9.134;2023-04-06T04:24:16;19.90;;;8.40;;
6549;SDS011;15142;48.888;9.134;2023-04-06T04:26:45;11.40;;;7.23;;
6549;SDS011;15142;48.888;9.134;2023-04-06T04:29:14;11.23;;;7.13;;
6549;SDS011;15142;48.888;9.134;2023-04-06T04:31:46;9.80;;;7.30;;
6549;SDS011;15142;48.888;9.134;2023-04-06T04:34:19;10.73;;;7.43;;
6549;SDS011;15142;48.888;9.134;2023-04-06T04:36:50;9.23;;;6.50;;
6549;SDS011;15142;48.888;9.134;2023-04-06T04:39:28;13.83;;;8.43;;
6549;SDS011;15142;48.888;9.134;2023-04-06T04:42:02;14.73;;;8.70;;
6549;SDS011;15142;48.888;9.134;2023-04-06T04:44:33;17.10;;;8.63;;
6549;SDS011;15142;48.888;9.134;2023-04-06T04:47:03;9.63;;;6.57;;
6549;SDS011;15142;48.888;9.134;2023-04-06T04:49:43;20.20;;;8.40;;
6549;SDS011;15142;48.888;9.134;2023-04-06T04:52:17;17.20;;;8.20;;
6549;SDS011;15142;48.888;9.134;2023-04-06T04:54:54;16.50;;;7.63;;
6549;SDS011;15142;48.888;9.134;2023-04-06T04:57:27;10.00;;;7.23;;
6549;SDS011;15142;48.888;9.134;2023-04-06T04:59:55;11.03;;;7.80;;
6549;SDS011;15142;48.888;9.134;2023-04-06T05:02:24;12.10;;;7.20;;
6549;SDS011;15142;48.888;9.134;2023-04-06T05:05:12;11.73;;;7.67;;
6549;SDS011;15142;48.888;9.134;2023-04-06T05:07:41;8.73;;;6.67;;
6549;SDS011;15142;48.888;9.134;2023-04-06T05:10:18;13.60;;;6.67;;
6549;SDS011;15142;48.888;9.134;2023-04-06T05:12:53;13.37;;;8.50;;
6549;SDS011;15142;48.888;9.134;2023-04-06T05:15:21;11.17;;;7.40;;
6549;SDS011;15142;48.888;9.134;2023-04-06T05:17:54;13.27;;;7.90;;
6549;SDS011;15142;48.888;9.134;2023-04-06T05:20:32;14.50;;;8.40;;
6549;SDS011;15142;48.888;9.134;2023-04-06T05:23:02;15.00;;;8.90;;
6549;SDS011;15142;48.888;9.134;2023-04-06T05:25:31;17.90;;;8.07;;
6549;SDS011;15142;48.888;9.134;2023-04-06T05:28:10;15.37;;;9.03;;
6549;SDS011;15142;48.888;9.134;2023-04-06T05:30:41;11.53;;;7.00;;
6549;SDS011;15142;48.888;9.134;2023-04-06T05:33:12;16.90;;;8.00;;
6549;SDS011;15142;48.888;9.134;2023-04-06T05:36:15;23.83;;;9.40;;
6549;SDS011;15142;48.888;9.134;2023-04-06T05:38:47;10.97;;;8.20;;
6549;SDS011;15142;48.888;9.134;2023-04-06T05:41:30;17.27;;;9.07;;
6549;SDS011;15142;48.888;9.134;2023-04-06T05:43:59;16.43;;;8.23;;
6549;SDS011;15142;48.888;9.134;2023-04-06T05:46:29;13.70;;;7.87;;
6549;SDS011;15142;48.888;9.134;2023-04-06T05:48:59;14.70;;;9.77;;
6549;SDS011;15142;48.888;9.134;2023-04-06T05:51:34;13.47;;;7.57;;
6549;SDS011;15142;48.888;9.134;2023-04-06T05:54:03;16.73;;;8.10;;
6549;SDS011;15142;48.888;9.134;2023-04-06T05:56:32;17.83;;;8.80;;
6549;SDS011;15142;48.888;9.134;2023-04-06T05:59:02;19.60;;;9.50;;
6549;SDS011;15142;48.888;9.134;2023-04-06T06:01:31;15.80;;;9.10;;
6549;SDS011;15142;48.888;9.134;2023-04-06T06:04:01;26.47;;;12.70;;
6549;SDS011;15142;48.888;9.134;2023-04-06T06:06:36;20.83;;;9.40;;
6549;SDS011;15142;48.888;9.134;2023-04-06T06:09:17;19.83;;;10.13;;
6549;SDS011;15142;48.888;9.134;2023-04-06T06:11:57;17.00;;;9.33;;
6549;SDS011;15142;48.888;9.134;2023-04-06T06:14:28;17.30;;;9.70;;
6549;SDS011;15142;48.888;9.134;2023-04-06T06:16:57;13.90;;;8.20;;
6549;SDS011;15142;48.888;9.134;2023-04-06T06:19:27;16.50;;;9.47;;
6549;SDS011;15142;48.888;9.134;2023-04-06T06:22:02;16.37;;;9.20;;
6549;SDS011;15142;48.888;9.134;2023-04-06T06:24:34;23.33;;;11.37;;
6549;SDS011;15142;48.888;9.134;2023-04-06T06:27:03;12.77;;;8.93;;
6549;SDS011;15142;48.888;9.134;2023-04-06T06:29:33;12.30;;;9.03;;
6549;SDS011;15142;48.888;9.134;2023-04-06T06:32:02;15.00;;;10.23;;
6549;SDS011;15142;48.888;9.134;2023-04-06T06:34:31;12.67;;;9.80;;
6549;SDS011;15142;48.888;9.134;2023-04-06T06:37:05;25.93;;;11.10;;
6549;SDS011;15142;48.888;9.134;2023-04-06T06:39:37;17.70;;;10.73;;
6549;SDS011;15142;48.888;9.134;2023-04-06T06:42:05;20.83;;;11.37;;
6549;SDS011;15142;48.888;9.134;2023-04-06T06:44:54;21.30;;;11.00;;
6549;SDS011;15142;48.888;9.134;2023-04-06T06:47:23;16.50;;;9.73;;
6549;SDS011;15142;48.888;9.134;2023-04-06T06:49:52;16.03;;;9.53;;
6549;SDS011;15142;48.888;9.134;2023-04-06T06:52:23;20.70;;;11.00;;
6549;SDS011;15142;48.888;9.134;2023-04-06T06:54:54;25.90;;;10.70;;
6549;SDS011;15142;48.888;9.134;2023-04-06T06:57:22;21.97;;;10.63;;
6549;SDS011;15142;48.888;9.134;2023-04-06T06:59:52;16.73;;;10.40;;
6549;SDS011;15142;48.888;9.134;2023-04-06T07:02:21;22.63;;;10.60;;
6549;SDS011;15142;48.888;9.134;2023-04-06T07:04:50;17.63;;;11.37;;
6549;SDS011;15142;48.888;9.134;2023-04-06T07:07:19;17.20;;;10.60;;
6549;SDS011;15142;48.888;9.134;2023-04-06T07:09:50;25.70;;;11.20;;
6549;SDS011;15142;48.888;9.134;2023-04-06T07:12:19;15.27;;;9.60;;
6549;SDS011;15142;48.888;9.134;2023-04-06T07:14:48;16.67;;;9.30;;
6549;SDS011;15142;48.888;9.134;2023-04-06T07:17:17;16.23;;;9.37;;
6549;SDS011;15142;48.888;9.134;2023-04-06T07:19:46;23.43;;;10.80;;
6549;SDS011;15142;48.888;9.134;2023-04-06T07:22:15;16.00;;;8.73;;
6549;SDS011;15142;48.888;9.134;2023-04-06T07:24:43;15.37;;;9.43;;
6549;SDS011;15142;48.888;9.134;2023-04-06T07:27:16;18.10;;;9.90;;
6549;SDS011;15142;48.888;9.134;2023-04-06T07:29:45;20.07;;;11.73;;
6549;SDS011;15142;48.888;9.134;2023-04-06T07:32:14;18.13;;;10.40;;
6549;SDS011;15142;48.888;9.134;2023-04-06T07:34:43;17.23;;;10.63;;
6549;SDS011;15142;48.888;9.134;2023-04-06T07:37:12;30.17;;;10.40;;
6549;SDS011;15142;48.888;9.134;2023-04-06T07:39:42;20.17;;;10.50;;
6549;SDS011;15142;48.888;9.134;2023-04-06T07:42:12;15.57;;;10.20;;
6549;SDS011;15142;48.888;9.134;2023-04-06T07:44:45;17.67;;;10.10;;
6549;SDS011;15142;48.888;9.134;2023-04-06T07:47:14;16.93;;;9.53;;
6549;SDS011;15142;48.888;9.134;2023-04-06T07:49:43;17.80;;;9.73;;
6549;SDS011;15142;48.888;9.134;2023-04-06T07:52:12;13.90;;;9.90;;
6549;SDS011;15142;48.888;9.134;2023-04-06T07:54:42;20.07;;;10.60;;
6549;SDS011;15142;48.888;9.134;2023-04-06T07:57:11;17.50;;;9.50;;
6549;SDS011;15142;48.888;9.134;2023-04-06T07:59:40;19.80;;;10.00;;
6549;SDS011;15142;48.888;9.134;2023-04-06T08:02:12;18.43;;;11.30;;
6549;SDS011;15142;48.888;9.134;2023-04-06T08:04:40;15.10;;;8.97;;
6549;SDS011;15142;48.888;9.134;2023-04-06T08:07:09;17.47;;;9.70;;
6549;SDS011;15142;48.888;9.134;2023-04-06T08:09:38;14.00;;;9.53;;
6549;SDS011;15142;48.888;9.134;2023-04-06T08:12:07;21.53;;;8.70;;
6549;SDS011;15142;48.888;9.134;2023-04-06T08:14:36;18.43;;;9.50;;
6549;SDS011;15142;48.888;9.134;2023-04-06T08:17:05;13.20;;;8.70;;
6549;SDS011;15142;48.888;9.134;2023-04-06T08:19:36;13.87;;;8.27;;
6549;SDS011;15142;48.888;9.134;2023-04-06T08:22:05;12.03;;;8.00;;
6549;SDS011;15142;48.888;9.134;2023-04-06T08:24:33;15.27;;;9.17;;
6549;SDS011;15142;48.888;9.134;2023-04-06T08:27:02;14.13;;;9.07;;
6549;SDS011;15142;48.888;9.134;2023-04-06T08:29:31;16.97;;;9.50;;
6549;SDS011;15142;48.888;9.134;2023-04-06T08:32:00;12.33;;;8.20;;
6549;SDS011;15142;48.888;9.134;2023-04-06T08:34:30;21.13;;;9.47;;
6549;SDS011;15142;48.888;9.134;2023-04-06T08:37:02;13.47;;;8.70;;
6549;SDS011;15142;48.888;9.134;2023-04-06T08:39:32;12.70;;;8.80;;
6549;SDS011;15142;48.888;9.134;2023-04-06T08:42:00;16.80;;;9.50;;
6549;SDS011;15142;48.888;9.134;2023-04-06T08:44:31;18.17;;;8.93;;
6549;SDS011;15142;48.888;9.134;2023-04-06T08:47:01;11.10;;;7.20;;
6549;SDS011;15142;48.888;9.134;2023-04-06T08:49:33;13.93;;;8.47;;
6549;SDS011;15142;48.888;9.134;2023-04-06T08:52:08;17.17;;;7.37;;
6549;SDS011;15142;48.888;9.134;2023-04-06T08:54:38;20.97;;;7.90;;
6549;SDS011;15142;48.888;9.134;2023-04-06T08:57:07;13.70;;;6.83;;
6549;SDS011;15142;48.888;9.134;2023-04-06T08:59:37;11.50;;;7.30;;
6549;SDS011;15142;48.888;9.134;2023-04-06T09:02:06;13.20;;;7.00;;
6549;SDS011;15142;48.888;9.134;2023-04-06T09:04:42;8.23;;;6.67;;
6549;SDS011;15142;48.888;9.134;2023-04-06T09:07:15;10.03;;;7.80;;
6549;SDS011;15142;48.888;9.134;2023-04-06T09:09:44;19.30;;;7.83;;
6549;SDS011;15142;48.888;9.134;2023-04-06T09:12:23;11.47;;;7.37;;
6549;SDS011;15142;48.888;9.134;2023-04-06T09:14:53;10.30;;;6.60;;
6549;SDS011;15142;48.888;9.134;2023-04-06T09:17:23;11.70;;;6.47;;
6549;SDS011;15142;48.888;9.134;2023-04-06T09:19:53;12.70;;;7.70;;
6549;SDS011;15142;48.888;9.134;2023-04-06T09:22:24;11.40;;;7.27;;
6549;SDS011;15142;48.888;9.134;2023-04-06T09:24:55;10.40;;;6.80;;
6549;SDS011;15142;48.888;9.134;2023-04-06T09:27:30;12.73;;;8.37;;
6549;SDS011;15142;48.888;9.134;2023-04-06T09:30:04;10.77;;;6.63;;
6549;SDS011;15142;48.888;9.134;2023-04-06T09:32:43;11.70;;;6.70;;
6549;SDS011;15142;48.888;9.134;2023-04-06T09:35:13;9.10;;;5.97;;
6549;SDS011;15142;48.888;9.134;2023-04-06T09:37:45;11.10;;;7.37;;
6549;SDS011;15142;48.888;9.134;2023-04-06T09:40:15;8.30;;;6.67;;
6549;SDS011;15142;48.888;9.134;2023-04-06T09:42:46;8.70;;;7.00;;
6549;SDS011;15142;48.888;9.134;2023-04-06T09:45:17;8.70;;;6.73;;
6549;SDS011;15142;48.888;9.134;2023-04-06T09:47:46;9.07;;;6.00;;
6549;SDS011;15142;48.888;9.134;2023-04-06T09:50:15;9.60;;;5.90;;
6549;SDS011;15142;48.888;9.134;2023-04-06T09:52:48;12.93;;;5.97;;
6549;SDS011;15142;48.888;9.134;2023-04-06T09:55:21;12.77;;;6.97;;
6549;SDS011;15142;48.888;9.134;2023-04-06T09:57:55;9.13;;;6.43;;
6549;SDS011;15142;48.888;9.134;2023-04-06T10:00:30;10.40;;;6.73;;
6549;SDS011;15142;48.888;9.134;2023-04-06T10:03:04;10.80;;;6.70;;
6549;SDS011;15142;48.888;9.134;2023-04-06T10:08:19;12.70;;;7.80;;
6549;SDS011;15142;48.888;9.134;2023-04-06T10:10:53;10.13;;;5.97;;
6549;SDS011;15142;48.888;9.134;2023-04-06T10:13:22;11.37;;;7.43;;
6549;SDS011;15142;48.888;9.134;2023-04-06T10:15:52;10.40;;;7.03;;
6549;SDS011;15142;48.888;9.134;2023-04-06T10:18:23;10.53;;;6.70;;
6549;SDS011;15142;48.888;9.134;2023-04-06T10:20:53;10.60;;;7.50;;
6549;SDS011;15142;48.888;9.134;2023-04-06T10:23:29;18.00;;;7.40;;
6549;SDS011;15142;48.888;9.134;2023-04-06T10:26:02;9.23;;;6.63;;
6549;SDS011;15142;48.888;9.134;2023-04-06T10:28:33;10.00;;;7.50;;
6549;SDS011;15142;48.888;9.134;2023-04-06T10:31:04;12.60;;;6.87;;
6549;SDS011;15142;48.888;9.134;2023-04-06T10:33:34;13.43;;;6.83;;
6549;SDS011;15142;48.888;9.134;2023-04-06T10:36:12;13.47;;;8.17;;
6549;SDS011;15142;48.888;9.134;2023-04-06T10:38:44;10.60;;;7.27;;
6549;SDS011;15142;48.888;9.134;2023-04-06T10:41:16;13.03;;;7.63;;
6549;SDS011;15142;48.888;9.134;2023-04-06T10:43:54;13.70;;;7.33;;
6549;SDS011;15142;48.888;9.134;2023-04-06T10:46:26;12.20;;;7.43;;
6549;SDS011;15142;48.888;9.134;2023-04-06T10:48:56;13.37;;;7.73;;
6549;SDS011;15142;48.888;9.134;2023-04-06T10:51:26;11.67;;;7.90;;
6549;SDS011;15142;48.888;9.134;2023-04-06T10:53:59;11.20;;;8.20;;
6549;SDS011;15142;48.888;9.134;2023-04-06T10:56:32;11.70;;;7.30;;
6549;SDS011;15142;48.888;9.134;2023-04-06T10:59:01;12.40;;;8.70;;
6549;SDS011;15142;48.888;9.134;2023-04-06T11:01:30;18.10;;;9.27;;
6549;SDS011;15142;48.888;9.134;2023-04-06T11:03:59;11.77;;;7.70;;
6549;SDS011;15142;48.888;9.134;2023-04-06T11:06:28;15.73;;;7.17;;
6549;SDS011;15142;48.888;9.134;2023-04-06T11:09:00;13.20;;;7.57;;
6549;SDS011;15142;48.888;9.134;2023-04-06T11:11:29;12.00;;;7.87;;
6549;SDS011;15142;48.888;9.134;2023-04-06T11:13:58;10.07;;;7.20;;
6549;SDS011;15142;48.888;9.134;2023-04-06T11:16:29;15.20;;;8.83;;
6549;SDS011;15142;48.888;9.134;2023-04-06T11:18:59;14.90;;;7.70;;
6549;SDS011;15142;48.888;9.134;2023-04-06T11:21:32;10.63;;;7.47;;
6549;SDS011;15142;48.888;9.134;2023-04-06T11:24:10;11.50;;;7.27;;
6549;SDS011;15142;48.888;9.134;2023-04-06T11:26:41;10.43;;;8.27;;
6549;SDS011;15142;48.888;9.134;2023-04-06T11:29:15;11.13;;;7.17;;
6549;SDS011;15142;48.888;9.134;2023-04-06T11:31:45;13.33;;;6.97;;
6549;SDS011;15142;48.888;9.134;2023-04-06T11:34:17;10.60;;;6.93;;
6549;SDS011;15142;48.888;9.134;2023-04-06T11:36:47;12.10;;;7.77;;
6549;SDS011;15142;48.888;9.134;2023-04-06T11:39:21;10.23;;;6.90;;
6549;SDS011;15142;48.888;9.134;2023-04-06T11:41:52;14.40;;;7.00;;
6549;SDS011;15142;48.888;9.134;2023-04-06T11:44:31;10.10;;;7.30;;
6549;SDS011;15142;48.888;9.134;2023-04-06T11:47:02;11.17;;;7.87;;
6549;SDS011;15142;48.888;9.134;2023-04-06T11:49:32;10.20;;;7.73;;
6549;SDS011;15142;48.888;9.134;2023-04-06T11:52:01;10.37;;;6.97;;
6549;SDS011;15142;48.888;9.134;2023-04-06T11:54:34;10.77;;;7.23;;
6549;SDS011;15142;48.888;9.134;2023-04-06T11:57:05;7.73;;;6.93;;
6549;SDS011;15142;48.888;9.134;2023-04-06T11:59:33;13.77;;;7.47;;
6549;SDS011;15142;48.888;9.134;2023-04-06T12:02:03;10.70;;;6.10;;
6549;SDS011;15142;48.888;9.134;2023-04-06T12:04:32;10.40;;;6.60;;
6549;SDS011;15142;48.888;9.134;2023-04-06T12:07:01;11.67;;;6.53;;
6549;SDS011;15142;48.888;9.134;2023-04-06T12:09:31;9.60;;;6.10;;
6549;SDS011;15142;48.888;9.134;2023-04-06T12:12:02;9.50;;;7.30;;
6549;SDS011;15142;48.888;9.134;2023-04-06T12:14:31;10.13;;;6.30;;
6549;SDS011;15142;48.888;9.134;2023-04-06T12:17:00;7.87;;;6.67;;
6549;SDS011;15142;48.888;9.134;2023-04-06T12:19:28;8.80;;;6.37;;
6549;SDS011;15142;48.888;9.134;2023-04-06T12:21:57;8.10;;;6.63;;
6549;SDS011;15142;48.888;9.134;2023-04-06T12:24:27;10.50;;;7.10;;
6549;SDS011;15142;48.888;9.134;2023-04-06T12:26:58;11.57;;;7.60;;
6549;SDS011;15142;48.888;9.134;2023-04-06T12:29:27;12.37;;;7.00;;
6549;SDS011;15142;48.888;9.134;2023-04-06T12:31:56;15.13;;;6.00;;
6549;SDS011;15142;48.888;9.134;2023-04-06T12:34:27;8.30;;;6.70;;
6549;SDS011;15142;48.888;9.134;2023-04-06T12:36:55;11.57;;;7.27;;
6549;SDS011;15142;48.888;9.134;2023-04-06T12:39:25;11.83;;;7.30;;
6549;SDS011;15142;48.888;9.134;2023-04-06T12:41:58;7.13;;;6.43;;
6549;SDS011;15142;48.888;9.134;2023-04-06T12:44:27;7.80;;;5.80;;
6549;SDS011;15142;48.888;9.134;2023-04-06T12:46:55;11.03;;;8.50;;
6549;SDS011;15142;48.888;9.134;2023-04-06T12:49:24;8.57;;;6.53;;
6549;SDS011;15142;48.888;9.134;2023-04-06T12:51:54;9.23;;;6.50;;
6549;SDS011;15142;48.888;9.134;2023-04-06T12:54:22;9.97;;;7.50;;
6549;SDS011;15142;48.888;9.134;2023-04-06T12:56:52;8.30;;;6.03;;
6549;SDS011;15142;48.888;9.134;2023-04-06T12:59:23;7.70;;;6.60;;
6549;SDS011;15142;48.888;9.134;2023-04-06T13:01:53;11.80;;;6.43;;
6549;SDS011;15142;48.888;9.134;2023-04-06T13:04:21;10.13;;;7.17;;
6549;SDS011;15142;48.888;9.134;2023-04-06T13:06:51;10.50;;;6.20;;
6549;SDS011;15142;48.888;9.134;2023-04-06T13:09:20;7.73;;;5.20;;
6549;SDS011;15142;48.888;9.134;2023-04-06T13:11:49;10.20;;;6.43;;
6549;SDS011;15142;48.888;9.134;2023-04-06T13:14:18;7.57;;;5.53;;
6549;SDS011;15142;48.888;9.134;2023-04-06T13:16:49;8.70;;;6.20;;
6549;SDS011;15142;48.888;9.134;2023-04-06T13:19:17;9.87;;;6.80;;
6549;SDS011;15142;48.888;9.134;2023-04-06T13:21:47;7.70;;;6.10;;
6549;SDS011;15142;48.888;9.134;2023-04-06T13:24:16;8.60;;;6.20;;
6549;SDS011;15142;48.888;9.134;2023-04-06T13:26:44;5.47;;;4.90;;
6549;SDS011;15142;48.888;9.134;2023-04-06T13:29:13;7.83;;;5.60;;
6549;SDS011;15142;48.888;9.134;2023-04-06T13:31:42;11.80;;;6.17;;
6549;SDS011;15142;48.888;9.134;2023-04-06T13:34:13;7.23;;;5.13;;
6549;SDS011;15142;48.888;9.134;2023-04-06T13:36:42;9.07;;;5.47;;
6549;SDS011;15142;48.888;9.134;2023-04-06T13:39:11;6.00;;;4.73;;
6549;SDS011;15142;48.888;9.134;2023-04-06T13:41:39;9.30;;;5.70;;
6549;SDS011;15142;48.888;9.134;2023-04-06T13:44:08;7.43;;;5.80;;
6549;SDS011;15142;48.888;9.134;2023-04-06T13:46:37;7.80;;;5.93;;
6549;SDS011;15142;48.888;9.134;2023-04-06T13:49:06;6.27;;;5.10;;
6549;SDS011;15142;48.888;9.134;2023-04-06T13:51:37;8.00;;;5.87;;
6549;SDS011;15142;48.888;9.134;2023-04-06T13:54:06;9.40;;;6.23;;
6549;SDS011;15142;48.888;9.134;2023-04-06T13:56:35;6.70;;;4.90;;
6549;SDS011;15142;48.888;9.134;2023-04-06T13:59:03;7.10;;;4.87;;
6549;SDS011;15142;48.888;9.134;2023-04-06T14:01:32;8.30;;;5.80;;
6549;SDS011;15142;48.888;9.134;2023-04-06T14:04:00;8.33;;;5.80;;
6549;SDS011;15142;48.888;9.134;2023-04-06T14:06:29;9.40;;;6.13;;
6549;SDS011;15142;48.888;9.134;2023-04-06T14:09:00;5.70;;;4.53;;
6549;SDS011;15142;48.888;9.134;2023-04-06T14:11:29;7.40;;;5.30;;
6549;SDS011;15142;48.888;9.134;2023-04-06T14:13:58;8.67;;;6.30;;
6549;SDS011;15142;48.888;9.134;2023-04-06T14:16:27;11.83;;;6.33;;
6549;SDS011;15142;48.888;9.134;2023-04-06T14:18:56;7.67;;;4.70;;
6549;SDS011;15142;48.888;9.134;2023-04-06T14:21:25;11.63;;;6.63;;
6549;SDS011;15142;48.888;9.134;2023-04-06T14:23:53;10.93;;;6.30;;
6549;SDS011;15142;48.888;9.134;2023-04-06T14:26:25;7.00;;;5.10;;
6549;SDS011;15142;48.888;9.134;2023-04-06T14:28:54;6.30;;;5.33;;
6549;SDS011;15142;48.888;9.134;2023-04-06T14:31:22;7.73;;;5.90;;
6549;SDS011;15142;48.888;9.134;2023-04-06T14:33:51;10.40;;;6.13;;
6549;SDS011;15142;48.888;9.134;2023-04-06T14:36:20;8.93;;;6.63;;
6549;SDS011;15142;48.888;9.134;2023-04-06T14:38:48;8.27;;;5.90;;
6549;SDS011;15142;48.888;9.134;2023-04-06T14:41:17;10.40;;;6.20;;
6549;SDS011;15142;48.888;9.134;2023-04-06T14:43:49;11.50;;;6.43;;
6549;SDS011;15142;48.888;9.134;2023-04-06T14:46:17;13.00;;;5.70;;
6549;SDS011;15142;48.888;9.134;2023-04-06T14:48:47;7.20;;;6.03;;
6549;SDS011;15142;48.888;9.134;2023-04-06T14:51:16;13.90;;;7.10;;
6549;SDS011;15142;48.888;9.134;2023-04-06T14:53:44;11.23;;;5.77;;
6549;SDS011;15142;48.888;9.134;2023-04-06T14:56:13;10.17;;;6.20;;
6549;SDS011;15142;48.888;9.134;2023-04-06T14:58:50;11.10;;;6.03;;
6549;SDS011;15142;48.888;9.134;2023-04-06T15:01:20;8.83;;;5.47;;
6549;SDS011;15142;48.888;9.134;2023-04-06T15:03:48;12.03;;;6.20;;
6549;SDS011;15142;48.888;9.134;2023-04-06T15:06:17;10.93;;;6.23;;
6549;SDS011;15142;48.888;9.134;2023-04-06T15:08:47;6.50;;;4.17;;
6549;SDS011;15142;48.888;9.134;2023-04-06T15:11:16;15.30;;;6.80;;
6549;SDS011;15142;48.888;9.134;2023-04-06T15:13:45;15.30;;;7.13;;
6549;SDS011;15142;48.888;9.134;2023-04-06T15:16:16;8.43;;;5.80;;